Time;durP1;ratioP1;P1;durP2;ratioP2;P2;SDS_P1;SDS_P2;PMS_P1;PMS_P2;Temp;Humidity;BMP_temperature;BMP_pressure;BME280_temperature;BME280_humidity;BME280_pressure;Samples;Min_cycle;Max_cycle;Signal;HPM_P1;HPM_P2
2023/08/16 00:01:23;;;;;;;10.93;4.10;;;17.80;99.90;;;;;;4988942;28;20492;-73
2023/08/16 00:03:49;;;;;;;11.55;4.25;;;17.70;99.90;;;;;;4987721;28;20066;-72
2023/08/16 00:06:14;;;;;;;18.60;4.13;;;17.70;99.90;;;;;;4988521;28;20030;-71
2023/08/16 00:08:40;;;;;;;11.90;4.18;;;17.70;99.90;;;;;;4988627;28;20030;-72
2023/08/16 00:11:07;;;;;;;10.27;4.30;;;17.60;99.90;;;;;;4988289;28;20035;-72
2023/08/16 00:13:34;;;;;;;7.65;4.60;;;17.60;99.90;;;;;;4988164;28;20110;-72
2023/08/16 00:16:01;;;;;;;9.70;4.88;;;17.50;99.90;;;;;;4988547;28;20464;-72
2023/08/16 00:18:28;;;;;;;12.07;5.20;;;17.50;99.90;;;;;;4986988;28;20083;-72
2023/08/16 00:20:53;;;;;;;9.95;5.70;;;17.40;99.90;;;;;;4988573;28;20038;-72
2023/08/16 00:23:19;;;;;;;15.02;4.93;;;17.40;99.90;;;;;;4987685;28;20023;-73
2023/08/16 00:25:45;;;;;;;8.55;4.57;;;17.40;99.90;;;;;;4987856;28;20039;-71
2023/08/16 00:28:10;;;;;;;9.60;4.80;;;17.30;99.90;;;;;;4988052;28;20054;-72
2023/08/16 00:30:36;;;;;;;8.70;4.45;;;17.30;99.90;;;;;;4986480;28;20023;-72
2023/08/16 00:33:01;;;;;;;13.20;5.03;;;17.30;99.90;;;;;;4985308;28;20043;-73
2023/08/16 00:35:27;;;;;;;10.82;4.55;;;17.30;99.90;;;;;;4986862;28;20045;-72
2023/08/16 00:37:53;;;;;;;10.85;5.00;;;17.30;99.90;;;;;;4985193;28;20062;-71
2023/08/16 00:40:20;;;;;;;7.53;4.45;;;17.30;99.90;;;;;;4985051;28;20038;-72
2023/08/16 00:42:46;;;;;;;12.65;5.07;;;17.30;99.90;;;;;;4986788;28;20081;-73
2023/08/16 00:45:11;;;;;;;10.05;4.82;;;17.20;99.90;;;;;;4986706;28;20038;-72
2023/08/16 00:47:37;;;;;;;12.05;5.13;;;17.20;99.90;;;;;;4986021;28;20027;-72
2023/08/16 00:50:04;;;;;;;9.52;5.50;;;17.20;99.90;;;;;;4985067;28;20040;-72
2023/08/16 00:52:29;;;;;;;9.80;5.15;;;17.20;99.90;;;;;;4986763;28;20438;-72
2023/08/16 00:54:56;;;;;;;9.60;5.15;;;17.20;99.90;;;;;;4984637;28;20034;-73
2023/08/16 00:57:22;;;;;;;9.88;4.75;;;17.10;99.90;;;;;;4985408;28;20030;-71
2023/08/16 00:59:48;;;;;;;9.32;4.93;;;17.10;99.90;;;;;;4986339;28;20045;-71
2023/08/16 01:02:17;;;;;;;11.07;5.28;;;17.00;99.90;;;;;;4985117;28;20062;-72
2023/08/16 01:04:43;;;;;;;9.23;5.40;;;17.00;99.90;;;;;;4986457;28;20031;-71
2023/08/16 01:07:09;;;;;;;13.55;5.53;;;16.90;99.90;;;;;;4986082;28;20034;-73
2023/08/16 01:09:35;;;;;;;9.95;4.90;;;16.90;99.90;;;;;;4984873;28;20023;-72
2023/08/16 01:12:26;;;;;;;10.48;4.88;;;16.90;99.90;;;;;;4984606;28;20037;-74
2023/08/16 01:15:26;;;;;;;9.27;5.30;;;16.90;99.90;;;;;;4986404;28;20050;-73
2023/08/16 01:17:53;;;;;;;8.35;5.10;;;16.90;99.90;;;;;;4978607;28;20038;-72
2023/08/16 01:20:21;;;;;;;8.10;4.55;;;16.80;99.90;;;;;;4984243;28;20129;-72
2023/08/16 01:23:08;;;;;;;10.68;4.97;;;16.80;99.90;;;;;;4984829;28;20758;-72
2023/08/16 01:25:56;;;;;;;9.85;5.32;;;16.80;99.90;;;;;;4986145;28;20030;-72
2023/08/16 01:28:23;;;;;;;9.38;4.80;;;16.80;99.90;;;;;;4985794;28;20023;-74
2023/08/16 01:30:50;;;;;;;12.02;4.82;;;16.70;99.90;;;;;;4984567;28;20045;-72
2023/08/16 01:34:54;;;;;;;16.20;4.68;;;16.70;99.90;;;;;;5073852;28;20392;-71
2023/08/16 01:37:20;;;;;;;8.10;4.55;;;16.60;99.90;;;;;;5061232;28;20113;-70
2023/08/16 01:39:51;;;;;;;13.95;5.10;;;16.60;99.90;;;;;;5060954;28;20025;-69
2023/08/16 01:42:17;;;;;;;8.98;4.32;;;16.60;99.90;;;;;;5060970;28;20037;-70
2023/08/16 01:44:49;;;;;;;9.48;4.88;;;16.60;99.90;;;;;;5060918;28;20033;-70
2023/08/16 01:47:15;;;;;;;10.27;4.95;;;16.60;99.90;;;;;;5060386;28;20036;-70
2023/08/16 01:49:41;;;;;;;9.35;4.63;;;16.60;99.90;;;;;;5060380;28;20029;-69
2023/08/16 01:52:07;;;;;;;8.57;5.00;;;16.50;99.90;;;;;;5051508;28;20033;-70
2023/08/16 01:54:33;;;;;;;13.40;4.75;;;16.50;99.90;;;;;;5040198;28;20071;-71
2023/08/16 01:56:59;;;;;;;11.95;5.40;;;16.50;99.90;;;;;;5039134;28;20053;-72
2023/08/16 01:59:25;;;;;;;11.15;4.88;;;16.50;99.90;;;;;;5040456;28;20061;-71
2023/08/16 02:01:50;;;;;;;12.68;5.38;;;16.40;99.90;;;;;;5039403;28;20029;-71
2023/08/16 02:04:16;;;;;;;8.63;5.20;;;16.40;99.90;;;;;;5040307;28;20026;-70
2023/08/16 02:06:41;;;;;;;13.85;5.43;;;16.30;99.90;;;;;;5039161;28;20041;-71
2023/08/16 02:09:07;;;;;;;11.30;5.25;;;16.30;99.90;;;;;;5040067;28;20030;-71
2023/08/16 02:11:33;;;;;;;13.63;5.20;;;16.30;99.90;;;;;;5040183;28;20030;-72
2023/08/16 02:13:59;;;;;;;8.77;4.70;;;16.30;99.90;;;;;;5040372;28;20073;-70
2023/08/16 02:16:24;;;;;;;9.38;4.78;;;16.20;99.90;;;;;;5040311;28;20065;-73
2023/08/16 02:18:54;;;;;;;8.35;4.63;;;16.20;99.90;;;;;;5039007;28;20033;-70
2023/08/16 02:21:20;;;;;;;11.32;5.75;;;16.20;99.90;;;;;;5040581;28;20132;-69
2023/08/16 02:23:46;;;;;;;13.13;6.45;;;16.20;99.90;;;;;;5040243;28;20037;-69
2023/08/16 02:26:11;;;;;;;9.50;5.85;;;16.20;99.90;;;;;;5040260;28;20444;-70
2023/08/16 02:28:37;;;;;;;12.52;6.88;;;16.20;99.90;;;;;;5038843;28;20029;-71
2023/08/16 02:31:06;;;;;;;13.45;6.53;;;16.20;99.90;;;;;;5039595;28;20068;-71
2023/08/16 02:33:33;;;;;;;11.73;6.20;;;16.20;99.90;;;;;;5038477;28;20046;-71
2023/08/16 02:35:59;;;;;;;10.20;6.10;;;16.20;99.90;;;;;;5038732;28;20026;-72
2023/08/16 02:38:25;;;;;;;12.13;6.63;;;16.20;99.90;;;;;;5040158;28;20021;-72
2023/08/16 02:40:51;;;;;;;13.70;6.47;;;16.10;99.90;;;;;;5038240;28;20025;-71
2023/08/16 02:43:16;;;;;;;12.20;7.00;;;16.10;99.90;;;;;;5039637;28;20443;-71
2023/08/16 02:45:43;;;;;;;11.75;6.35;;;16.10;99.90;;;;;;5027707;28;20033;-72
2023/08/16 02:48:08;;;;;;;12.13;6.30;;;16.10;99.90;;;;;;5026440;28;20048;-71
2023/08/16 02:50:34;;;;;;;10.73;6.40;;;16.10;99.90;;;;;;5017373;28;20034;-71
2023/08/16 02:53:00;;;;;;;13.45;6.50;;;16.00;99.90;;;;;;5025883;28;20038;-71
2023/08/16 02:55:26;;;;;;;14.18;6.95;;;16.00;99.90;;;;;;5025668;28;20030;-72
2023/08/16 02:57:52;;;;;;;14.15;6.88;;;16.00;99.90;;;;;;5026972;28;20471;-72
2023/08/16 03:00:18;;;;;;;13.95;7.47;;;16.00;99.90;;;;;;5026164;28;20033;-71
2023/08/16 03:02:44;;;;;;;12.38;6.45;;;15.90;99.90;;;;;;5026059;28;20030;-71
2023/08/16 03:05:10;;;;;;;12.63;6.65;;;15.90;99.90;;;;;;5026270;28;20471;-72
2023/08/16 03:07:36;;;;;;;16.13;7.60;;;15.90;99.90;;;;;;5024383;28;20035;-70
2023/08/16 03:10:02;;;;;;;14.43;6.88;;;15.90;99.90;;;;;;5025052;28;20487;-70
2023/08/16 03:12:28;;;;;;;16.70;7.22;;;15.80;99.90;;;;;;5024462;28;20053;-71
2023/08/16 03:14:53;;;;;;;14.80;6.32;;;15.90;99.90;;;;;;5026034;28;20045;-70
2023/08/16 03:17:19;;;;;;;15.32;6.88;;;15.80;99.90;;;;;;5023280;28;20463;-71
2023/08/16 03:19:45;;;;;;;12.77;6.40;;;15.80;99.90;;;;;;5023915;28;20030;-71
2023/08/16 03:22:10;;;;;;;13.60;7.00;;;15.80;99.90;;;;;;5025776;28;20030;-71
2023/08/16 03:24:36;;;;;;;15.82;7.45;;;15.80;99.90;;;;;;5025861;28;20029;-72
2023/08/16 03:27:02;;;;;;;13.68;6.80;;;15.80;99.90;;;;;;5024145;28;20032;-70
2023/08/16 03:29:28;;;;;;;16.15;6.97;;;15.90;99.90;;;;;;5024311;28;20030;-70
2023/08/16 03:31:54;;;;;;;14.63;7.28;;;15.80;99.90;;;;;;5043531;28;20025;-70
2023/08/16 03:34:19;;;;;;;19.27;6.72;;;15.80;99.90;;;;;;5043916;28;20072;-70
2023/08/16 03:36:45;;;;;;;14.80;7.20;;;15.80;99.90;;;;;;5045264;28;20470;-71
2023/08/16 03:39:11;;;;;;;18.23;7.47;;;15.80;99.90;;;;;;5044276;28;20061;-69
2023/08/16 03:41:37;;;;;;;10.98;6.85;;;15.70;99.90;;;;;;5044818;28;20029;-70
2023/08/16 03:44:06;;;;;;;19.17;7.40;;;15.70;99.90;;;;;;5043565;28;20036;-71
2023/08/16 03:46:31;;;;;;;18.20;7.65;;;15.70;99.90;;;;;;5044082;28;20030;-70
2023/08/16 03:48:57;;;;;;;15.43;7.32;;;15.80;99.90;;;;;;5044366;28;20051;-70
2023/08/16 03:51:23;;;;;;;18.45;7.68;;;15.80;99.90;;;;;;5045739;28;20063;-72
2023/08/16 03:53:48;;;;;;;12.75;7.90;;;15.80;99.90;;;;;;5041690;28;20077;-71
2023/08/16 03:56:14;;;;;;;19.30;8.57;;;15.80;99.90;;;;;;5023647;28;20076;-70
2023/08/16 03:58:39;;;;;;;15.90;7.97;;;15.80;99.90;;;;;;5024649;28;20032;-71
2023/08/16 04:01:05;;;;;;;20.15;8.05;;;15.80;99.90;;;;;;5023193;28;20032;-70
2023/08/16 04:03:31;;;;;;;13.70;8.15;;;15.80;99.90;;;;;;5024840;28;20026;-70
2023/08/16 04:05:56;;;;;;;23.25;8.60;;;15.80;99.90;;;;;;5025038;28;20117;-70
2023/08/16 04:08:22;;;;;;;17.08;8.35;;;15.70;99.90;;;;;;5025032;28;20049;-72
2023/08/16 04:10:48;;;;;;;13.90;8.00;;;15.70;99.90;;;;;;5024978;28;20062;-70
2023/08/16 04:13:13;;;;;;;15.70;7.97;;;15.70;99.90;;;;;;5024434;28;20045;-70
2023/08/16 04:15:39;;;;;;;16.23;8.13;;;15.70;99.90;;;;;;5024689;28;20097;-69
2023/08/16 04:18:04;;;;;;;18.83;8.20;;;15.70;99.90;;;;;;5024618;28;20029;-70
2023/08/16 04:20:30;;;;;;;16.10;8.57;;;15.60;99.90;;;;;;5024594;28;20086;-72
2023/08/16 04:22:56;;;;;;;17.63;8.02;;;15.60;99.90;;;;;;5024887;28;20026;-72
2023/08/16 04:25:22;;;;;;;21.05;8.77;;;15.60;99.90;;;;;;5024938;28;20034;-70
2023/08/16 04:27:47;;;;;;;17.67;8.27;;;15.60;99.90;;;;;;5022707;28;20038;-70
2023/08/16 04:30:13;;;;;;;16.83;8.43;;;15.60;99.90;;;;;;5024467;28;20018;-71
2023/08/16 04:32:39;;;;;;;24.00;9.18;;;15.60;99.90;;;;;;5024143;28;20030;-69
2023/08/16 04:35:05;;;;;;;23.55;9.13;;;15.60;99.90;;;;;;5024296;28;20032;-70
2023/08/16 04:37:30;;;;;;;20.48;8.40;;;15.60;99.90;;;;;;5023453;28;20486;-70
2023/08/16 04:39:56;;;;;;;15.52;8.73;;;15.60;99.90;;;;;;5024620;28;20183;-72
2023/08/16 04:42:21;;;;;;;18.52;8.52;;;15.60;99.90;;;;;;5024179;28;20041;-70
2023/08/16 04:44:47;;;;;;;19.92;9.60;;;15.60;99.90;;;;;;5024384;28;20040;-71
2023/08/16 04:47:13;;;;;;;20.80;9.75;;;15.60;99.90;;;;;;5017520;28;20406;-72
2023/08/16 04:49:38;;;;;;;19.45;9.68;;;15.60;99.90;;;;;;5019171;28;20025;-70
2023/08/16 04:52:04;;;;;;;18.75;8.63;;;15.60;99.90;;;;;;5022623;28;20101;-71
2023/08/16 04:54:30;;;;;;;20.65;9.00;;;15.60;99.90;;;;;;5022833;28;20046;-71
2023/08/16 04:56:56;;;;;;;22.58;9.43;;;15.70;99.90;;;;;;5016342;28;20030;-71
2023/08/16 04:59:21;;;;;;;17.10;8.77;;;15.70;99.90;;;;;;5022965;28;20061;-70
2023/08/16 05:01:47;;;;;;;15.90;8.90;;;15.70;99.90;;;;;;5024100;28;20029;-71
2023/08/16 05:04:13;;;;;;;25.42;9.55;;;15.80;99.90;;;;;;5023205;28;20906;-71
2023/08/16 05:06:39;;;;;;;19.02;9.52;;;15.70;99.90;;;;;;5022081;28;20026;-70
2023/08/16 05:09:05;;;;;;;20.80;9.23;;;15.80;99.90;;;;;;5017403;28;20077;-71
2023/08/16 05:11:31;;;;;;;17.80;8.90;;;15.80;99.90;;;;;;5018199;28;20026;-72
2023/08/16 05:13:57;;;;;;;19.10;8.98;;;15.80;99.90;;;;;;5016879;28;20038;-72
2023/08/16 05:16:22;;;;;;;18.58;8.73;;;15.80;99.90;;;;;;5016498;28;20041;-72
2023/08/16 05:18:48;;;;;;;18.27;8.80;;;15.80;99.90;;;;;;5015030;28;20068;-71
2023/08/16 05:21:14;;;;;;;16.98;8.77;;;15.80;99.90;;;;;;5014614;28;20018;-71
2023/08/16 05:23:39;;;;;;;16.17;8.88;;;15.80;99.90;;;;;;5013553;28;20084;-70
2023/08/16 05:26:06;;;;;;;23.83;9.20;;;15.80;99.90;;;;;;5016667;28;20026;-71
2023/08/16 05:28:31;;;;;;;21.85;9.52;;;15.90;99.90;;;;;;5018865;28;20022;-70
2023/08/16 05:31:06;;;;;;;21.33;9.50;;;15.90;99.90;;;;;;5018252;28;20041;-74
2023/08/16 05:33:32;;;;;;;17.75;9.23;;;15.90;99.90;;;;;;5012665;28;20074;-72
2023/08/16 05:35:58;;;;;;;18.73;9.02;;;15.90;99.90;;;;;;5014125;28;20030;-72
2023/08/16 05:38:24;;;;;;;18.75;9.35;;;15.90;99.90;;;;;;5019589;28;20025;-73
2023/08/16 05:40:49;;;;;;;17.75;9.18;;;15.90;99.90;;;;;;5022375;28;20034;-71
2023/08/16 05:43:15;;;;;;;17.48;9.88;;;16.00;99.90;;;;;;5022644;28;20040;-72
2023/08/16 05:45:41;;;;;;;19.77;8.50;;;16.00;99.90;;;;;;5022291;28;20030;-72
2023/08/16 05:48:06;;;;;;;14.75;7.55;;;16.00;99.90;;;;;;5022487;28;20125;-72
2023/08/16 05:50:34;;;;;;;18.63;7.30;;;16.10;99.90;;;;;;5023698;28;20432;-73
2023/08/16 05:52:59;;;;;;;13.57;5.95;;;16.10;99.90;;;;;;5023092;28;20097;-72
2023/08/16 05:55:25;;;;;;;12.82;4.82;;;16.10;99.90;;;;;;5023984;28;20057;-73
2023/08/16 05:57:50;;;;;;;9.95;5.03;;;16.10;99.90;;;;;;5026341;28;20030;-72
2023/08/16 06:00:17;;;;;;;12.68;5.38;;;16.10;99.90;;;;;;5021233;28;20045;-72
2023/08/16 06:02:42;;;;;;;10.80;5.35;;;16.20;99.90;;;;;;5016697;28;20083;-72
2023/08/16 06:05:09;;;;;;;18.73;6.03;;;16.20;99.90;;;;;;5013651;28;20026;-73
2023/08/16 06:07:35;;;;;;;11.93;5.32;;;16.20;99.90;;;;;;5018014;28;20030;-72
2023/08/16 06:10:01;;;;;;;13.25;4.93;;;16.30;99.90;;;;;;5023824;28;20033;-73
2023/08/16 06:12:26;;;;;;;18.60;7.50;;;16.30;99.90;;;;;;5022823;28;20034;-73
2023/08/16 06:14:52;;;;;;;26.27;7.50;;;16.40;99.90;;;;;;5023736;28;20030;-72
2023/08/16 06:17:17;;;;;;;15.95;7.30;;;16.40;99.90;;;;;;5023619;28;20033;-72
2023/08/16 06:19:43;;;;;;;12.52;4.50;;;16.50;99.90;;;;;;5023562;28;20054;-71
2023/08/16 06:22:09;;;;;;;9.32;5.72;;;16.50;99.90;;;;;;5027947;28;20022;-72
2023/08/16 06:24:37;;;;;;;11.98;6.55;;;16.60;99.90;;;;;;5025422;28;20065;-72
2023/08/16 06:27:03;;;;;;;14.27;5.82;;;16.60;99.90;;;;;;5027491;28;20030;-72
2023/08/16 06:29:29;;;;;;;12.05;5.90;;;16.60;99.90;;;;;;5026712;28;20041;-72
2023/08/16 06:31:55;;;;;;;11.80;5.63;;;16.60;99.90;;;;;;5026731;28;20026;-73
2023/08/16 06:34:21;;;;;;;9.13;5.93;;;16.70;99.90;;;;;;5025378;28;20548;-71
2023/08/16 06:36:46;;;;;;;14.18;6.65;;;16.70;99.90;;;;;;5026244;28;20036;-72
2023/08/16 06:39:12;;;;;;;11.75;6.60;;;16.70;99.90;;;;;;5025928;28;20022;-71
2023/08/16 06:41:38;;;;;;;14.88;7.47;;;16.80;99.90;;;;;;5026069;28;20018;-72
2023/08/16 06:44:04;;;;;;;15.82;7.57;;;16.80;99.90;;;;;;5024403;28;20437;-72
2023/08/16 06:46:30;;;;;;;15.52;8.50;;;16.90;99.90;;;;;;5027224;28;20413;-71
2023/08/16 06:48:55;;;;;;;14.57;8.52;;;17.00;99.90;;;;;;5026549;28;20030;-72
2023/08/16 06:51:21;;;;;;;17.95;8.13;;;17.00;99.90;;;;;;5025878;28;20094;-72
2023/08/16 06:53:49;;;;;;;17.25;8.80;;;17.10;99.90;;;;;;5026740;28;20044;-71
2023/08/16 06:56:14;;;;;;;14.85;8.70;;;17.20;99.90;;;;;;5026963;28;20794;-72
2023/08/16 06:58:41;;;;;;;14.32;8.35;;;17.30;99.90;;;;;;5027012;28;20053;-72
2023/08/16 07:01:08;;;;;;;13.52;8.43;;;17.40;99.90;;;;;;5023268;28;20117;-73
2023/08/16 07:03:37;;;;;;;18.90;8.82;;;17.40;99.90;;;;;;5024170;28;20089;-73
2023/08/16 07:06:02;;;;;;;19.75;9.00;;;17.50;99.90;;;;;;5016529;28;20090;-71
2023/08/16 07:08:28;;;;;;;12.05;7.78;;;17.60;99.90;;;;;;5006984;28;20037;-72
2023/08/16 07:10:54;;;;;;;16.92;7.68;;;17.70;99.90;;;;;;5018994;28;20432;-72
2023/08/16 07:13:20;;;;;;;14.35;7.30;;;17.80;99.90;;;;;;5025455;28;20042;-73
2023/08/16 07:15:46;;;;;;;16.58;6.80;;;17.90;99.90;;;;;;5026135;28;20105;-72
2023/08/16 07:18:12;;;;;;;13.68;5.55;;;18.10;99.90;;;;;;5024799;28;20022;-71
2023/08/16 07:20:38;;;;;;;12.20;5.32;;;18.20;99.90;;;;;;5025059;28;20077;-72
2023/08/16 07:23:05;;;;;;;10.10;3.95;;;18.40;99.90;;;;;;5022229;28;20101;-72
2023/08/16 07:25:31;;;;;;;8.25;3.83;;;18.50;99.90;;;;;;5026780;28;20037;-72
2023/08/16 07:27:56;;;;;;;11.07;4.05;;;18.60;99.90;;;;;;5026478;28;20026;-73
2023/08/16 07:30:22;;;;;;;8.50;3.40;;;18.70;99.90;;;;;;5024831;28;20034;-72
2023/08/16 07:32:47;;;;;;;11.07;2.95;;;18.80;99.90;;;;;;5023249;28;20062;-72
2023/08/16 07:35:13;;;;;;;9.25;3.53;;;18.90;99.90;;;;;;5024176;28;20100;-73
2023/08/16 07:37:39;;;;;;;6.28;2.70;;;18.90;99.90;;;;;;5010325;28;20053;-73
2023/08/16 07:40:05;;;;;;;5.28;2.13;;;19.10;99.90;;;;;;5006295;28;20570;-72
2023/08/16 07:42:30;;;;;;;9.07;2.63;;;19.20;99.90;;;;;;5018587;28;20026;-73
2023/08/16 07:44:58;;;;;;;7.30;2.78;;;19.20;99.90;;;;;;5014987;28;20033;-73
2023/08/16 07:47:25;;;;;;;7.47;2.50;;;19.30;99.90;;;;;;5016116;28;20049;-74
2023/08/16 07:49:50;;;;;;;6.55;2.50;;;19.30;99.90;;;;;;5021259;28;20030;-73
2023/08/16 07:52:16;;;;;;;10.07;2.95;;;19.40;99.90;;;;;;5024005;28;20026;-72
2023/08/16 07:54:42;;;;;;;9.75;2.47;;;19.40;99.90;;;;;;5024132;28;20034;-73
2023/08/16 07:57:08;;;;;;;6.95;2.10;;;19.50;99.90;;;;;;5024652;28;20049;-72
2023/08/16 07:59:36;;;;;;;7.90;3.10;;;19.60;99.90;;;;;;5019901;28;20383;-73
2023/08/16 08:02:01;;;;;;;6.43;2.30;;;19.60;99.90;;;;;;5039110;28;20049;-73
2023/08/16 08:04:27;;;;;;;9.15;2.97;;;19.70;99.90;;;;;;5045418;28;20030;-73
2023/08/16 08:06:52;;;;;;;5.97;2.67;;;19.70;99.90;;;;;;5022696;28;20043;-73
2023/08/16 08:09:18;;;;;;;7.13;2.92;;;19.60;99.90;;;;;;5018058;28;20036;-73
2023/08/16 08:11:44;;;;;;;10.43;2.50;;;19.60;99.90;;;;;;5012722;28;20057;-73
2023/08/16 08:14:10;;;;;;;9.00;2.60;;;19.70;99.90;;;;;;5021578;28;20101;-73
2023/08/16 08:16:35;;;;;;;7.00;2.78;;;19.80;99.90;;;;;;5024888;28;20026;-73
2023/08/16 08:19:01;;;;;;;7.80;2.53;;;19.90;99.90;;;;;;5023713;28;20036;-73
2023/08/16 08:21:26;;;;;;;9.00;2.80;;;20.00;99.90;;;;;;5023542;28;20032;-73
2023/08/16 08:23:52;;;;;;;9.73;2.50;;;20.10;99.90;;;;;;5024758;28;20030;-71
2023/08/16 08:26:18;;;;;;;10.85;2.25;;;20.20;99.90;;;;;;5023067;28;20076;-73
2023/08/16 08:28:44;;;;;;;8.00;2.67;;;20.20;99.90;;;;;;5024862;28;20621;-74
2023/08/16 08:31:10;;;;;;;7.53;2.67;;;20.30;99.90;;;;;;5016087;28;20026;-73
2023/08/16 08:33:36;;;;;;;8.05;2.83;;;20.40;99.90;;;;;;5022926;28;20113;-73
2023/08/16 08:36:03;;;;;;;6.97;2.45;;;20.40;99.90;;;;;;5018928;28;20033;-73
2023/08/16 08:38:29;;;;;;;6.38;2.47;;;20.50;99.90;;;;;;5020673;28;20036;-74
2023/08/16 08:41:01;;;;;;;7.28;2.45;;;20.50;99.90;;;;;;5024038;28;20101;-73
2023/08/16 08:43:53;;;;;;;5.93;2.60;;;20.40;99.90;;;;;;5022831;28;20041;-72
2023/08/16 08:46:20;;;;;;;7.95;2.78;;;20.40;99.90;;;;;;5023612;28;20052;-73
2023/08/16 08:48:47;;;;;;;9.18;2.60;;;20.40;99.90;;;;;;5015655;28;20080;-74
2023/08/16 08:51:13;;;;;;;4.88;2.40;;;20.30;99.90;;;;;;5012201;28;20022;-73
2023/08/16 08:53:39;;;;;;;6.78;2.47;;;20.30;99.90;;;;;;5020980;28;20042;-72
2023/08/16 08:56:11;;;;;;;5.70;2.47;;;20.30;99.90;;;;;;5009098;28;20053;-73
2023/08/16 08:58:40;;;;;;;7.15;2.10;;;20.20;99.90;;;;;;5015284;28;20040;-73
2023/08/16 09:01:07;;;;;;;5.80;2.42;;;20.20;99.90;;;;;;5026078;28;20025;-73
2023/08/16 09:03:34;;;;;;;7.03;2.70;;;20.30;99.90;;;;;;5025450;28;20025;-73
2023/08/16 09:05:59;;;;;;;6.80;3.15;;;20.30;99.90;;;;;;5024506;28;20030;-73
2023/08/16 09:08:26;;;;;;;7.68;2.35;;;20.30;99.90;;;;;;5022785;28;20493;-73
2023/08/16 09:10:52;;;;;;;8.18;2.25;;;20.30;99.90;;;;;;5023355;28;20399;-73
2023/08/16 09:13:19;;;;;;;6.47;2.45;;;20.40;99.90;;;;;;5023471;28;20037;-73
2023/08/16 09:15:44;;;;;;;6.70;2.63;;;20.40;99.90;;;;;;5019376;28;20034;-73
2023/08/16 09:18:12;;;;;;;7.30;2.33;;;20.40;99.90;;;;;;5020687;28;20030;-73
2023/08/16 09:20:38;;;;;;;7.45;2.28;;;20.50;99.90;;;;;;5010593;28;20314;-73
2023/08/16 09:23:04;;;;;;;6.63;2.45;;;20.50;99.90;;;;;;5018522;28;20118;-74
2023/08/16 09:25:30;;;;;;;6.53;2.35;;;20.50;99.90;;;;;;5020417;28;20072;-72
2023/08/16 09:27:55;;;;;;;9.05;2.45;;;20.40;99.90;;;;;;5015010;28;20049;-74
2023/08/16 09:30:24;;;;;;;7.60;2.65;;;20.40;99.90;;;;;;5020405;28;20084;-73
2023/08/16 09:32:52;;;;;;;7.18;2.50;;;20.40;99.90;;;;;;5022084;28;20132;-72
2023/08/16 09:35:18;;;;;;;10.45;2.58;;;20.30;99.90;;;;;;5024699;28;20033;-73
2023/08/16 09:37:44;;;;;;;6.40;2.53;;;20.30;99.90;;;;;;5024151;28;20040;-73
2023/08/16 09:40:15;;;;;;;8.25;2.63;;;20.30;99.90;;;;;;5022152;28;20054;-73
2023/08/16 09:42:41;;;;;;;5.05;2.35;;;20.20;99.90;;;;;;5023752;28;20030;-74
2023/08/16 09:45:07;;;;;;;5.75;2.28;;;20.20;99.90;;;;;;5013426;28;20034;-74
2023/08/16 09:47:32;;;;;;;8.85;2.75;;;20.10;99.90;;;;;;5018569;28;20061;-73
2023/08/16 09:49:59;;;;;;;6.22;2.17;;;20.10;99.90;;;;;;5023297;28;20082;-73
2023/08/16 09:52:25;;;;;;;10.77;2.70;;;20.20;99.90;;;;;;5004530;28;20034;-73
2023/08/16 09:54:53;;;;;;;8.60;2.70;;;20.20;99.90;;;;;;5024483;28;20034;-72
2023/08/16 09:57:19;;;;;;;6.25;2.20;;;20.10;99.90;;;;;;5027765;28;20030;-73
2023/08/16 09:59:46;;;;;;;8.18;2.60;;;20.10;99.90;;;;;;5026915;28;20399;-72
2023/08/16 10:02:13;;;;;;;10.38;2.50;;;20.10;99.90;;;;;;5026235;28;20536;-74
2023/08/16 10:04:42;;;;;;;6.65;2.33;;;20.10;99.90;;;;;;5021154;28;20030;-73
2023/08/16 10:07:08;;;;;;;7.88;2.55;;;20.10;99.90;;;;;;5023304;28;20101;-73
2023/08/16 10:09:34;;;;;;;4.97;2.38;;;20.10;99.90;;;;;;5024554;28;20053;-73
2023/08/16 10:12:04;;;;;;;6.25;2.53;;;20.10;99.90;;;;;;5025999;28;20030;-73
2023/08/16 10:14:31;;;;;;;4.90;2.33;;;20.10;99.90;;;;;;5031346;28;20056;-73
2023/08/16 10:17:02;;;;;;;10.20;2.78;;;20.10;99.90;;;;;;5027503;28;20036;-72
2023/08/16 10:19:32;;;;;;;10.13;2.80;;;20.10;99.90;;;;;;5027566;28;20057;-74
2023/08/16 10:22:00;;;;;;;8.85;2.83;;;20.20;99.90;;;;;;5028211;28;20080;-73
2023/08/16 10:24:29;;;;;;;6.03;2.38;;;20.30;99.90;;;;;;5027972;28;20032;-74
2023/08/16 10:26:58;;;;;;;8.63;3.28;;;20.30;99.90;;;;;;5027471;28;20416;-73
2023/08/16 10:29:24;;;;;;;5.85;2.63;;;20.40;99.90;;;;;;5027924;28;20026;-73
2023/08/16 10:31:52;;;;;;;5.72;2.50;;;20.40;99.90;;;;;;5025459;28;20033;-73
2023/08/16 10:34:20;;;;;;;9.05;2.75;;;20.60;99.90;;;;;;5023368;28;20050;-73
2023/08/16 10:36:46;;;;;;;5.45;2.53;;;20.70;99.90;;;;;;5038004;28;20026;-72
2023/08/16 10:39:22;;;;;;;7.70;2.40;;;20.70;99.90;;;;;;5025339;28;20083;-73
2023/08/16 10:41:50;;;;;;;7.13;2.28;;;20.70;99.90;;;;;;5022221;28;20041;-74
2023/08/16 10:44:23;;;;;;;11.15;2.50;;;20.60;99.90;;;;;;5035835;28;20025;-74
2023/08/16 10:46:50;;;;;;;8.82;2.67;;;20.60;99.90;;;;;;5028120;28;20033;-73
2023/08/16 10:49:18;;;;;;;6.00;2.63;;;20.60;99.90;;;;;;5026721;28;20072;-72
2023/08/16 10:51:45;;;;;;;13.02;2.55;;;20.50;99.90;;;;;;5026180;28;20017;-73
2023/08/16 10:54:11;;;;;;;6.18;2.50;;;20.50;99.90;;;;;;5027213;28;20037;-74
2023/08/16 10:56:50;;;;;;;8.20;2.83;;;20.50;99.90;;;;;;5025993;28;20044;-73
2023/08/16 10:59:16;;;;;;;6.68;2.63;;;20.40;99.90;;;;;;5023876;28;20104;-75
2023/08/16 11:01:47;;;;;;;7.75;2.60;;;20.40;99.90;;;;;;5024489;28;20041;-73
2023/08/16 11:04:12;;;;;;;6.22;2.45;;;20.40;99.90;;;;;;5012717;28;20029;-73
2023/08/16 11:06:39;;;;;;;5.32;2.33;;;20.40;99.90;;;;;;5006674;28;20026;-73
2023/08/16 11:09:06;;;;;;;5.22;2.80;;;20.50;99.90;;;;;;5005709;28;20030;-73
2023/08/16 11:11:35;;;;;;;5.68;2.90;;;20.50;99.90;;;;;;5007653;28;20025;-73
2023/08/16 11:14:01;;;;;;;7.25;2.60;;;20.60;99.90;;;;;;5006687;28;20034;-73
2023/08/16 11:16:30;;;;;;;5.47;2.65;;;20.60;99.90;;;;;;5021331;28;20470;-73
2023/08/16 11:18:59;;;;;;;6.72;1.92;;;20.60;99.90;;;;;;5029763;28;20038;-73
2023/08/16 11:21:25;;;;;;;7.20;2.65;;;20.60;99.90;;;;;;5026512;28;20394;-73
2023/08/16 11:23:54;;;;;;;10.88;2.70;;;20.70;99.90;;;;;;5026934;28;20391;-73
2023/08/16 11:26:20;;;;;;;4.15;2.17;;;20.70;99.90;;;;;;5026901;28;20030;-73
2023/08/16 11:28:45;;;;;;;6.65;2.33;;;20.70;99.90;;;;;;5026424;28;20030;-73
2023/08/16 11:31:11;;;;;;;10.43;2.60;;;20.70;99.90;;;;;;5025489;28;20034;-73
2023/08/16 11:33:40;;;;;;;10.70;2.33;;;20.70;99.90;;;;;;5014357;28;20050;-74
2023/08/16 11:36:08;;;;;;;8.05;2.40;;;20.60;99.90;;;;;;5016472;28;20060;-73
2023/08/16 11:38:34;;;;;;;8.18;2.65;;;20.60;99.90;;;;;;5019307;28;20030;-74
2023/08/16 11:41:01;;;;;;;6.63;2.65;;;20.60;99.90;;;;;;5022132;28;20044;-74
2023/08/16 11:43:31;;;;;;;6.55;2.40;;;20.60;99.90;;;;;;5014253;28;20026;-74
2023/08/16 11:45:58;;;;;;;5.53;2.50;;;20.60;99.90;;;;;;5014069;28;20034;-73
2023/08/16 11:48:25;;;;;;;6.97;2.72;;;20.60;99.90;;;;;;5021163;28;20034;-74
2023/08/16 11:50:52;;;;;;;8.52;2.72;;;20.60;99.90;;;;;;5006721;28;20117;-74
2023/08/16 11:53:18;;;;;;;6.18;2.50;;;20.60;99.90;;;;;;5016167;28;20045;-74
2023/08/16 11:55:57;;;;;;;5.05;2.55;;;20.60;99.90;;;;;;5006352;28;20053;-74
2023/08/16 11:58:23;;;;;;;9.13;2.47;;;20.60;99.90;;;;;;5004866;28;20025;-70
2023/08/16 12:00:49;;;;;;;10.57;2.58;;;20.60;99.90;;;;;;5020055;28;20034;-70
2023/08/16 12:03:17;;;;;;;7.00;2.33;;;20.60;99.90;;;;;;5008621;28;20097;-74
2023/08/16 12:05:46;;;;;;;8.60;2.33;;;20.70;99.90;;;;;;5015586;28;20026;-73
2023/08/16 12:08:13;;;;;;;7.60;2.63;;;20.60;99.90;;;;;;5009594;28;20077;-74
2023/08/16 12:10:39;;;;;;;7.05;2.63;;;20.60;99.90;;;;;;5005800;28;20392;-76
2023/08/16 12:13:13;;;;;;;9.88;2.60;;;20.60;99.90;;;;;;5007557;28;20019;-71
2023/08/16 12:15:39;;;;;;;5.55;2.20;;;20.60;99.90;;;;;;5018303;28;20517;-73
2023/08/16 12:18:05;;;;;;;4.35;2.30;;;20.50;99.90;;;;;;5019845;28;20404;-72
2023/08/16 12:20:31;;;;;;;6.85;2.30;;;20.50;99.90;;;;;;5013552;28;20030;-72
2023/08/16 12:22:58;;;;;;;7.18;2.50;;;20.50;99.90;;;;;;5012932;28;20031;-72
2023/08/16 12:25:24;;;;;;;6.53;2.55;;;20.50;99.90;;;;;;5018342;28;20033;-73
2023/08/16 12:27:50;;;;;;;5.95;2.28;;;20.60;99.90;;;;;;5019145;28;20127;-72
2023/08/16 12:30:16;;;;;;;7.35;2.17;;;20.60;99.90;;;;;;5025025;28;20109;-72
2023/08/16 12:32:41;;;;;;;6.13;2.20;;;20.60;99.90;;;;;;5018504;28;20064;-73
2023/08/16 12:35:08;;;;;;;6.07;2.08;;;20.60;99.90;;;;;;5018105;28;20437;-72
2023/08/16 12:37:33;;;;;;;4.95;1.92;;;20.50;99.90;;;;;;5017006;28;20026;-74
2023/08/16 12:39:59;;;;;;;4.88;2.03;;;20.50;99.90;;;;;;5011116;28;20034;-73